sensor_id;sensor_type;location;lat;lon;timestamp;P1;durP1;ratioP1;P2;durP2;ratioP2
20966;SDS011;10642;50.682;18.510;2022-07-29T00:01:01;9.37;;;2.70;;
20966;SDS011;10642;50.682;18.510;2022-07-29T00:03:28;8.53;;;2.70;;
20966;SDS011;10642;50.682;18.510;2022-07-29T00:05:55;8.73;;;4.07;;
20966;SDS011;10642;50.682;18.510;2022-07-29T00:08:22;8.67;;;3.93;;
20966;SDS011;10642;50.682;18.510;2022-07-29T00:10:50;9.67;;;4.10;;
20966;SDS011;10642;50.682;18.510;2022-07-29T00:13:17;8.13;;;3.67;;
20966;SDS011;10642;50.682;18.510;2022-07-29T00:15:58;10.97;;;3.70;;
20966;SDS011;10642;50.682;18.510;2022-07-29T00:18:30;5.87;;;2.73;;
20966;SDS011;10642;50.682;18.510;2022-07-29T00:20:57;5.17;;;2.77;;
20966;SDS011;10642;50.682;18.510;2022-07-29T00:23:24;7.80;;;2.83;;
20966;SDS011;10642;50.682;18.510;2022-07-29T00:25:52;5.63;;;2.73;;
20966;SDS011;10642;50.682;18.510;2022-07-29T00:28:19;5.37;;;2.83;;
20966;SDS011;10642;50.682;18.510;2022-07-29T00:30:46;9.10;;;2.47;;
20966;SDS011;10642;50.682;18.510;2022-07-29T00:33:13;5.00;;;2.47;;
20966;SDS011;10642;50.682;18.510;2022-07-29T00:35:40;4.93;;;2.60;;
20966;SDS011;10642;50.682;18.510;2022-07-29T00:38:13;8.73;;;2.47;;
20966;SDS011;10642;50.682;18.510;2022-07-29T00:40:41;6.33;;;2.50;;
20966;SDS011;10642;50.682;18.510;2022-07-29T00:43:10;6.17;;;2.23;;
20966;SDS011;10642;50.682;18.510;2022-07-29T00:45:37;4.50;;;2.00;;
20966;SDS011;10642;50.682;18.510;2022-07-29T00:48:05;4.30;;;2.10;;
20966;SDS011;10642;50.682;18.510;2022-07-29T00:50:33;7.97;;;2.03;;
20966;SDS011;10642;50.682;18.510;2022-07-29T00:53:00;4.93;;;1.80;;
20966;SDS011;10642;50.682;18.510;2022-07-29T00:55:27;4.90;;;2.20;;
20966;SDS011;10642;50.682;18.510;2022-07-29T00:57:55;3.63;;;2.37;;
20966;SDS011;10642;50.682;18.510;2022-07-29T01:00:24;3.40;;;1.80;;
20966;SDS011;10642;50.682;18.510;2022-07-29T01:02:52;7.20;;;2.03;;
20966;SDS011;10642;50.682;18.510;2022-07-29T01:05:21;6.43;;;2.30;;
20966;SDS011;10642;50.682;18.510;2022-07-29T01:07:49;5.83;;;2.63;;
20966;SDS011;10642;50.682;18.510;2022-07-29T01:10:18;5.53;;;2.77;;
20966;SDS011;10642;50.682;18.510;2022-07-29T01:12:46;5.20;;;2.50;;
20966;SDS011;10642;50.682;18.510;2022-07-29T01:15:14;10.77;;;2.77;;
20966;SDS011;10642;50.682;18.510;2022-07-29T01:17:45;5.50;;;2.50;;
20966;SDS011;10642;50.682;18.510;2022-07-29T01:25:42;4.60;;;2.17;;
20966;SDS011;10642;50.682;18.510;2022-07-29T01:31:19;4.27;;;2.40;;
20966;SDS011;10642;50.682;18.510;2022-07-29T01:33:54;4.83;;;2.33;;
20966;SDS011;10642;50.682;18.510;2022-07-29T01:36:30;5.93;;;2.40;;
20966;SDS011;10642;50.682;18.510;2022-07-29T01:38:59;4.47;;;2.23;;
20966;SDS011;10642;50.682;18.510;2022-07-29T01:41:30;5.90;;;2.17;;
20966;SDS011;10642;50.682;18.510;2022-07-29T01:44:02;5.87;;;1.97;;
20966;SDS011;10642;50.682;18.510;2022-07-29T01:46:37;6.03;;;2.20;;
20966;SDS011;10642;50.682;18.510;2022-07-29T01:49:13;4.23;;;2.07;;
20966;SDS011;10642;50.682;18.510;2022-07-29T01:51:52;3.00;;;1.80;;
20966;SDS011;10642;50.682;18.510;2022-07-29T01:56:48;3.90;;;1.90;;
20966;SDS011;10642;50.682;18.510;2022-07-29T01:59:16;3.73;;;1.83;;
20966;SDS011;10642;50.682;18.510;2022-07-29T02:01:44;4.43;;;2.00;;
20966;SDS011;10642;50.682;18.510;2022-07-29T02:04:12;6.57;;;2.00;;
20966;SDS011;10642;50.682;18.510;2022-07-29T02:06:57;6.00;;;1.90;;
20966;SDS011;10642;50.682;18.510;2022-07-29T02:09:25;4.40;;;1.90;;
20966;SDS011;10642;50.682;18.510;2022-07-29T02:11:53;5.17;;;2.07;;
20966;SDS011;10642;50.682;18.510;2022-07-29T02:14:22;5.63;;;1.97;;
20966;SDS011;10642;50.682;18.510;2022-07-29T02:16:50;3.27;;;2.00;;
20966;SDS011;10642;50.682;18.510;2022-07-29T02:19:19;2.73;;;1.87;;
20966;SDS011;10642;50.682;18.510;2022-07-29T02:21:47;4.43;;;2.33;;
20966;SDS011;10642;50.682;18.510;2022-07-29T02:24:14;6.77;;;2.23;;
20966;SDS011;10642;50.682;18.510;2022-07-29T02:26:43;9.10;;;3.10;;
20966;SDS011;10642;50.682;18.510;2022-07-29T02:29:10;4.97;;;2.23;;
20966;SDS011;10642;50.682;18.510;2022-07-29T02:31:39;8.30;;;2.10;;
20966;SDS011;10642;50.682;18.510;2022-07-29T02:34:07;3.50;;;2.00;;
20966;SDS011;10642;50.682;18.510;2022-07-29T02:36:34;5.90;;;2.10;;
20966;SDS011;10642;50.682;18.510;2022-07-29T02:39:02;3.03;;;2.10;;
20966;SDS011;10642;50.682;18.510;2022-07-29T02:43:58;5.27;;;1.90;;
20966;SDS011;10642;50.682;18.510;2022-07-29T02:46:33;4.80;;;1.93;;
20966;SDS011;10642;50.682;18.510;2022-07-29T02:51:56;5.40;;;1.83;;
20966;SDS011;10642;50.682;18.510;2022-07-29T02:54:38;3.30;;;2.03;;
20966;SDS011;10642;50.682;18.510;2022-07-29T02:57:09;4.57;;;2.10;;
20966;SDS011;10642;50.682;18.510;2022-07-29T02:59:37;4.83;;;2.27;;
20966;SDS011;10642;50.682;18.510;2022-07-29T03:02:08;4.30;;;1.93;;
20966;SDS011;10642;50.682;18.510;2022-07-29T03:04:36;7.10;;;2.60;;
20966;SDS011;10642;50.682;18.510;2022-07-29T03:07:05;4.37;;;2.37;;
20966;SDS011;10642;50.682;18.510;2022-07-29T03:09:33;7.03;;;2.23;;
20966;SDS011;10642;50.682;18.510;2022-07-29T03:12:00;6.23;;;2.57;;
20966;SDS011;10642;50.682;18.510;2022-07-29T03:14:27;5.13;;;2.20;;
20966;SDS011;10642;50.682;18.510;2022-07-29T03:16:55;4.70;;;2.17;;
20966;SDS011;10642;50.682;18.510;2022-07-29T03:19:22;10.43;;;2.37;;
20966;SDS011;10642;50.682;18.510;2022-07-29T03:21:49;3.13;;;1.80;;
20966;SDS011;10642;50.682;18.510;2022-07-29T03:24:27;3.07;;;2.07;;
20966;SDS011;10642;50.682;18.510;2022-07-29T03:26:55;6.70;;;2.60;;
20966;SDS011;10642;50.682;18.510;2022-07-29T03:29:23;5.93;;;2.17;;
20966;SDS011;10642;50.682;18.510;2022-07-29T03:31:58;6.50;;;2.00;;
20966;SDS011;10642;50.682;18.510;2022-07-29T03:34:28;3.50;;;2.03;;
20966;SDS011;10642;50.682;18.510;2022-07-29T03:36:55;3.33;;;2.40;;
20966;SDS011;10642;50.682;18.510;2022-07-29T03:39:23;4.07;;;2.73;;
20966;SDS011;10642;50.682;18.510;2022-07-29T03:41:52;8.40;;;2.20;;
20966;SDS011;10642;50.682;18.510;2022-07-29T03:44:19;5.07;;;2.00;;
20966;SDS011;10642;50.682;18.510;2022-07-29T03:46:47;3.10;;;1.83;;
20966;SDS011;10642;50.682;18.510;2022-07-29T03:49:15;3.47;;;1.93;;
20966;SDS011;10642;50.682;18.510;2022-07-29T03:51:43;5.93;;;1.90;;
20966;SDS011;10642;50.682;18.510;2022-07-29T03:54:10;4.30;;;1.77;;
20966;SDS011;10642;50.682;18.510;2022-07-29T03:56:38;3.50;;;2.07;;
20966;SDS011;10642;50.682;18.510;2022-07-29T03:59:06;8.00;;;2.10;;
20966;SDS011;10642;50.682;18.510;2022-07-29T04:01:34;7.17;;;2.00;;
20966;SDS011;10642;50.682;18.510;2022-07-29T04:04:02;2.97;;;2.07;;
20966;SDS011;10642;50.682;18.510;2022-07-29T04:06:43;4.57;;;2.10;;
20966;SDS011;10642;50.682;18.510;2022-07-29T04:09:11;5.50;;;2.03;;
20966;SDS011;10642;50.682;18.510;2022-07-29T04:11:38;5.73;;;2.40;;
20966;SDS011;10642;50.682;18.510;2022-07-29T04:14:26;4.07;;;1.90;;
20966;SDS011;10642;50.682;18.510;2022-07-29T04:16:53;10.77;;;2.20;;
20966;SDS011;10642;50.682;18.510;2022-07-29T04:19:20;4.27;;;2.23;;
20966;SDS011;10642;50.682;18.510;2022-07-29T04:21:47;4.93;;;1.63;;
20966;SDS011;10642;50.682;18.510;2022-07-29T04:24:14;3.33;;;1.80;;
20966;SDS011;10642;50.682;18.510;2022-07-29T04:26:41;6.63;;;2.07;;
20966;SDS011;10642;50.682;18.510;2022-07-29T04:29:08;5.73;;;1.70;;
20966;SDS011;10642;50.682;18.510;2022-07-29T04:31:35;8.07;;;2.03;;
20966;SDS011;10642;50.682;18.510;2022-07-29T04:34:03;7.47;;;1.47;;
20966;SDS011;10642;50.682;18.510;2022-07-29T04:36:30;3.63;;;1.60;;
20966;SDS011;10642;50.682;18.510;2022-07-29T04:38:57;4.83;;;2.30;;
20966;SDS011;10642;50.682;18.510;2022-07-29T04:41:24;4.07;;;1.57;;
20966;SDS011;10642;50.682;18.510;2022-07-29T04:43:59;10.07;;;2.23;;
20966;SDS011;10642;50.682;18.510;2022-07-29T04:46:28;5.33;;;1.70;;
20966;SDS011;10642;50.682;18.510;2022-07-29T04:48:55;4.57;;;1.70;;
20966;SDS011;10642;50.682;18.510;2022-07-29T04:51:22;7.30;;;1.70;;
20966;SDS011;10642;50.682;18.510;2022-07-29T04:53:49;10.17;;;1.97;;
20966;SDS011;10642;50.682;18.510;2022-07-29T04:56:16;5.40;;;2.10;;
20966;SDS011;10642;50.682;18.510;2022-07-29T04:58:43;4.67;;;1.77;;
20966;SDS011;10642;50.682;18.510;2022-07-29T05:01:10;3.93;;;1.93;;
20966;SDS011;10642;50.682;18.510;2022-07-29T05:03:38;4.10;;;1.60;;
20966;SDS011;10642;50.682;18.510;2022-07-29T05:06:04;5.17;;;1.60;;
20966;SDS011;10642;50.682;18.510;2022-07-29T05:08:32;4.37;;;2.10;;
20966;SDS011;10642;50.682;18.510;2022-07-29T05:10:59;4.83;;;1.80;;
20966;SDS011;10642;50.682;18.510;2022-07-29T05:13:38;5.20;;;1.70;;
20966;SDS011;10642;50.682;18.510;2022-07-29T05:16:13;3.17;;;1.70;;
20966;SDS011;10642;50.682;18.510;2022-07-29T05:18:40;8.17;;;1.93;;
20966;SDS011;10642;50.682;18.510;2022-07-29T05:21:07;5.97;;;2.17;;
20966;SDS011;10642;50.682;18.510;2022-07-29T05:23:34;6.90;;;1.83;;
20966;SDS011;10642;50.682;18.510;2022-07-29T05:26:01;6.23;;;2.00;;
20966;SDS011;10642;50.682;18.510;2022-07-29T05:28:28;2.00;;;1.57;;
20966;SDS011;10642;50.682;18.510;2022-07-29T05:30:55;4.37;;;1.80;;
20966;SDS011;10642;50.682;18.510;2022-07-29T05:33:22;2.53;;;1.30;;
20966;SDS011;10642;50.682;18.510;2022-07-29T05:36:05;11.63;;;1.70;;
20966;SDS011;10642;50.682;18.510;2022-07-29T05:38:34;5.00;;;1.50;;
20966;SDS011;10642;50.682;18.510;2022-07-29T05:41:02;2.87;;;1.30;;
20966;SDS011;10642;50.682;18.510;2022-07-29T05:43:29;5.57;;;1.57;;
20966;SDS011;10642;50.682;18.510;2022-07-29T05:45:56;6.87;;;2.07;;
20966;SDS011;10642;50.682;18.510;2022-07-29T05:48:24;3.90;;;1.60;;
20966;SDS011;10642;50.682;18.510;2022-07-29T05:50:51;9.53;;;1.33;;
20966;SDS011;10642;50.682;18.510;2022-07-29T05:53:19;6.67;;;1.73;;
20966;SDS011;10642;50.682;18.510;2022-07-29T05:55:47;8.03;;;1.53;;
20966;SDS011;10642;50.682;18.510;2022-07-29T05:58:14;5.83;;;1.40;;
20966;SDS011;10642;50.682;18.510;2022-07-29T06:00:41;6.53;;;1.93;;
20966;SDS011;10642;50.682;18.510;2022-07-29T06:03:08;3.33;;;1.30;;
20966;SDS011;10642;50.682;18.510;2022-07-29T06:05:35;7.97;;;1.83;;
20966;SDS011;10642;50.682;18.510;2022-07-29T06:08:02;7.33;;;1.57;;
20966;SDS011;10642;50.682;18.510;2022-07-29T06:10:32;3.93;;;1.30;;
20966;SDS011;10642;50.682;18.510;2022-07-29T06:12:59;4.70;;;1.60;;
20966;SDS011;10642;50.682;18.510;2022-07-29T06:15:26;5.30;;;1.40;;
20966;SDS011;10642;50.682;18.510;2022-07-29T06:17:54;4.23;;;1.30;;
20966;SDS011;10642;50.682;18.510;2022-07-29T06:20:30;6.30;;;1.40;;
20966;SDS011;10642;50.682;18.510;2022-07-29T06:22:58;3.57;;;1.30;;
20966;SDS011;10642;50.682;18.510;2022-07-29T06:25:26;3.03;;;1.30;;
20966;SDS011;10642;50.682;18.510;2022-07-29T06:27:56;3.80;;;1.50;;
20966;SDS011;10642;50.682;18.510;2022-07-29T06:30:23;5.53;;;1.40;;
20966;SDS011;10642;50.682;18.510;2022-07-29T06:32:50;3.53;;;1.73;;
20966;SDS011;10642;50.682;18.510;2022-07-29T06:35:17;6.87;;;1.30;;
20966;SDS011;10642;50.682;18.510;2022-07-29T06:38:04;3.37;;;1.40;;
20966;SDS011;10642;50.682;18.510;2022-07-29T06:40:51;5.83;;;1.40;;
20966;SDS011;10642;50.682;18.510;2022-07-29T06:43:36;6.87;;;1.37;;
20966;SDS011;10642;50.682;18.510;2022-07-29T06:46:18;4.53;;;1.20;;
20966;SDS011;10642;50.682;18.510;2022-07-29T06:48:46;4.63;;;2.00;;
20966;SDS011;10642;50.682;18.510;2022-07-29T06:51:14;2.53;;;1.20;;
20966;SDS011;10642;50.682;18.510;2022-07-29T06:53:41;5.33;;;1.30;;
20966;SDS011;10642;50.682;18.510;2022-07-29T06:56:29;2.77;;;1.50;;
20966;SDS011;10642;50.682;18.510;2022-07-29T06:58:57;4.20;;;1.37;;
20966;SDS011;10642;50.682;18.510;2022-07-29T07:01:24;6.03;;;1.50;;
20966;SDS011;10642;50.682;18.510;2022-07-29T07:03:51;3.70;;;1.40;;
20966;SDS011;10642;50.682;18.510;2022-07-29T07:06:18;5.07;;;1.67;;
20966;SDS011;10642;50.682;18.510;2022-07-29T07:08:45;3.67;;;1.37;;
20966;SDS011;10642;50.682;18.510;2022-07-29T07:11:12;7.43;;;1.60;;
20966;SDS011;10642;50.682;18.510;2022-07-29T07:13:39;6.07;;;1.60;;
20966;SDS011;10642;50.682;18.510;2022-07-29T07:16:06;4.50;;;1.67;;
20966;SDS011;10642;50.682;18.510;2022-07-29T07:18:33;8.57;;;1.60;;
20966;SDS011;10642;50.682;18.510;2022-07-29T07:21:00;7.70;;;1.80;;
20966;SDS011;10642;50.682;18.510;2022-07-29T07:23:27;4.40;;;1.73;;
20966;SDS011;10642;50.682;18.510;2022-07-29T07:25:54;6.97;;;1.90;;
20966;SDS011;10642;50.682;18.510;2022-07-29T07:28:21;5.20;;;1.70;;
20966;SDS011;10642;50.682;18.510;2022-07-29T07:30:50;11.90;;;2.33;;
20966;SDS011;10642;50.682;18.510;2022-07-29T07:33:18;7.50;;;2.07;;
20966;SDS011;10642;50.682;18.510;2022-07-29T07:35:46;6.17;;;2.10;;
20966;SDS011;10642;50.682;18.510;2022-07-29T07:38:13;7.30;;;1.80;;
20966;SDS011;10642;50.682;18.510;2022-07-29T07:40:40;3.60;;;1.60;;
20966;SDS011;10642;50.682;18.510;2022-07-29T07:43:07;4.43;;;1.83;;
20966;SDS011;10642;50.682;18.510;2022-07-29T07:45:34;5.00;;;1.73;;
20966;SDS011;10642;50.682;18.510;2022-07-29T07:48:04;5.37;;;1.80;;
20966;SDS011;10642;50.682;18.510;2022-07-29T07:50:31;3.47;;;1.40;;
20966;SDS011;10642;50.682;18.510;2022-07-29T07:52:58;3.77;;;2.00;;
20966;SDS011;10642;50.682;18.510;2022-07-29T07:55:26;7.93;;;2.00;;
20966;SDS011;10642;50.682;18.510;2022-07-29T07:57:56;5.30;;;1.73;;
20966;SDS011;10642;50.682;18.510;2022-07-29T08:00:23;6.53;;;2.20;;
20966;SDS011;10642;50.682;18.510;2022-07-29T08:02:50;4.53;;;1.90;;
20966;SDS011;10642;50.682;18.510;2022-07-29T08:05:17;5.27;;;1.87;;
20966;SDS011;10642;50.682;18.510;2022-07-29T08:07:45;9.40;;;2.30;;
20966;SDS011;10642;50.682;18.510;2022-07-29T08:10:15;8.07;;;2.00;;
20966;SDS011;10642;50.682;18.510;2022-07-29T08:13:06;10.00;;;2.20;;
20966;SDS011;10642;50.682;18.510;2022-07-29T08:15:33;5.50;;;2.13;;
20966;SDS011;10642;50.682;18.510;2022-07-29T08:18:00;7.23;;;2.23;;
20966;SDS011;10642;50.682;18.510;2022-07-29T08:20:34;8.57;;;2.33;;
20966;SDS011;10642;50.682;18.510;2022-07-29T08:23:02;6.47;;;2.00;;
20966;SDS011;10642;50.682;18.510;2022-07-29T08:25:29;9.53;;;2.07;;
20966;SDS011;10642;50.682;18.510;2022-07-29T08:27:56;7.93;;;2.30;;
20966;SDS011;10642;50.682;18.510;2022-07-29T08:30:24;3.70;;;2.00;;
20966;SDS011;10642;50.682;18.510;2022-07-29T08:32:51;4.03;;;2.00;;
20966;SDS011;10642;50.682;18.510;2022-07-29T08:35:21;5.70;;;1.77;;
20966;SDS011;10642;50.682;18.510;2022-07-29T08:37:48;6.90;;;2.07;;
20966;SDS011;10642;50.682;18.510;2022-07-29T08:40:16;8.33;;;2.33;;
20966;SDS011;10642;50.682;18.510;2022-07-29T08:42:43;6.87;;;2.80;;
20966;SDS011;10642;50.682;18.510;2022-07-29T08:45:10;4.80;;;2.30;;
20966;SDS011;10642;50.682;18.510;2022-07-29T08:47:40;7.00;;;1.90;;
20966;SDS011;10642;50.682;18.510;2022-07-29T08:50:08;8.40;;;2.33;;
20966;SDS011;10642;50.682;18.510;2022-07-29T08:52:36;5.17;;;2.43;;
20966;SDS011;10642;50.682;18.510;2022-07-29T08:55:04;5.73;;;2.13;;
20966;SDS011;10642;50.682;18.510;2022-07-29T08:57:32;4.70;;;2.37;;
20966;SDS011;10642;50.682;18.510;2022-07-29T09:00:00;7.50;;;2.47;;
20966;SDS011;10642;50.682;18.510;2022-07-29T09:02:40;6.17;;;2.40;;
20966;SDS011;10642;50.682;18.510;2022-07-29T09:05:12;9.07;;;3.20;;
20966;SDS011;10642;50.682;18.510;2022-07-29T09:07:39;6.60;;;2.00;;
20966;SDS011;10642;50.682;18.510;2022-07-29T09:10:09;3.50;;;2.60;;
20966;SDS011;10642;50.682;18.510;2022-07-29T09:12:36;8.50;;;2.43;;
20966;SDS011;10642;50.682;18.510;2022-07-29T09:15:04;10.07;;;2.97;;
20966;SDS011;10642;50.682;18.510;2022-07-29T09:17:45;6.87;;;2.57;;
20966;SDS011;10642;50.682;18.510;2022-07-29T09:20:13;3.73;;;2.40;;
20966;SDS011;10642;50.682;18.510;2022-07-29T09:22:41;7.37;;;2.30;;
20966;SDS011;10642;50.682;18.510;2022-07-29T09:25:08;6.33;;;2.40;;
20966;SDS011;10642;50.682;18.510;2022-07-29T09:27:35;8.40;;;2.70;;
20966;SDS011;10642;50.682;18.510;2022-07-29T09:30:04;4.97;;;2.30;;
20966;SDS011;10642;50.682;18.510;2022-07-29T09:32:53;4.13;;;2.53;;
20966;SDS011;10642;50.682;18.510;2022-07-29T09:35:20;5.57;;;2.80;;
20966;SDS011;10642;50.682;18.510;2022-07-29T09:37:47;3.47;;;2.30;;
20966;SDS011;10642;50.682;18.510;2022-07-29T09:40:16;5.77;;;2.33;;
20966;SDS011;10642;50.682;18.510;2022-07-29T09:42:43;6.73;;;1.97;;
20966;SDS011;10642;50.682;18.510;2022-07-29T09:45:11;3.93;;;2.07;;
20966;SDS011;10642;50.682;18.510;2022-07-29T09:50:08;4.43;;;2.77;;
20966;SDS011;10642;50.682;18.510;2022-07-29T09:52:43;4.60;;;2.20;;
20966;SDS011;10642;50.682;18.510;2022-07-29T09:55:11;4.43;;;2.43;;
20966;SDS011;10642;50.682;18.510;2022-07-29T09:57:44;6.17;;;2.60;;
20966;SDS011;10642;50.682;18.510;2022-07-29T10:00:16;11.70;;;2.50;;
20966;SDS011;10642;50.682;18.510;2022-07-29T10:02:45;6.13;;;2.70;;
20966;SDS011;10642;50.682;18.510;2022-07-29T10:05:16;6.43;;;2.03;;
20966;SDS011;10642;50.682;18.510;2022-07-29T10:07:53;8.83;;;2.23;;
20966;SDS011;10642;50.682;18.510;2022-07-29T10:10:26;4.60;;;2.00;;
20966;SDS011;10642;50.682;18.510;2022-07-29T10:12:55;12.20;;;2.60;;
20966;SDS011;10642;50.682;18.510;2022-07-29T10:15:23;9.33;;;2.50;;
20966;SDS011;10642;50.682;18.510;2022-07-29T10:17:51;7.30;;;2.30;;
20966;SDS011;10642;50.682;18.510;2022-07-29T10:20:18;2.87;;;2.27;;
20966;SDS011;10642;50.682;18.510;2022-07-29T10:22:46;7.57;;;2.50;;
20966;SDS011;10642;50.682;18.510;2022-07-29T10:25:19;5.80;;;2.60;;
20966;SDS011;10642;50.682;18.510;2022-07-29T10:27:47;6.93;;;2.17;;
20966;SDS011;10642;50.682;18.510;2022-07-29T10:30:15;3.60;;;2.27;;
20966;SDS011;10642;50.682;18.510;2022-07-29T10:43:16;4.77;;;2.47;;
20966;SDS011;10642;50.682;18.510;2022-07-29T10:45:46;7.47;;;2.47;;
20966;SDS011;10642;50.682;18.510;2022-07-29T10:48:15;7.10;;;2.17;;
20966;SDS011;10642;50.682;18.510;2022-07-29T10:50:54;6.70;;;2.30;;
20966;SDS011;10642;50.682;18.510;2022-07-29T10:56:31;3.47;;;2.53;;
20966;SDS011;10642;50.682;18.510;2022-07-29T11:02:09;4.33;;;2.30;;
20966;SDS011;10642;50.682;18.510;2022-07-29T11:07:38;10.77;;;3.30;;
20966;SDS011;10642;50.682;18.510;2022-07-29T11:15:09;5.23;;;2.70;;
20966;SDS011;10642;50.682;18.510;2022-07-29T11:20:30;7.30;;;2.67;;
20966;SDS011;10642;50.682;18.510;2022-07-29T11:22:58;6.03;;;2.80;;
20966;SDS011;10642;50.682;18.510;2022-07-29T11:25:25;7.03;;;2.80;;
20966;SDS011;10642;50.682;18.510;2022-07-29T11:28:16;14.80;;;3.50;;
20966;SDS011;10642;50.682;18.510;2022-07-29T11:30:52;10.50;;;4.23;;
20966;SDS011;10642;50.682;18.510;2022-07-29T11:33:29;5.67;;;3.93;;
20966;SDS011;10642;50.682;18.510;2022-07-29T11:36:16;7.93;;;3.67;;
20966;SDS011;10642;50.682;18.510;2022-07-29T11:38:43;4.87;;;3.10;;
20966;SDS011;10642;50.682;18.510;2022-07-29T11:41:26;7.33;;;3.17;;
20966;SDS011;10642;50.682;18.510;2022-07-29T11:44:00;5.43;;;3.10;;
20966;SDS011;10642;50.682;18.510;2022-07-29T11:46:46;6.73;;;3.63;;
20966;SDS011;10642;50.682;18.510;2022-07-29T11:49:19;6.17;;;3.70;;
20966;SDS011;10642;50.682;18.510;2022-07-29T11:51:58;7.60;;;3.67;;
20966;SDS011;10642;50.682;18.510;2022-07-29T11:54:32;8.00;;;4.07;;
20966;SDS011;10642;50.682;18.510;2022-07-29T11:57:20;8.23;;;4.13;;
20966;SDS011;10642;50.682;18.510;2022-07-29T11:59:47;9.13;;;4.47;;
20966;SDS011;10642;50.682;18.510;2022-07-29T12:02:16;8.03;;;3.43;;
20966;SDS011;10642;50.682;18.510;2022-07-29T12:05:03;5.63;;;3.43;;
20966;SDS011;10642;50.682;18.510;2022-07-29T12:07:37;8.13;;;3.90;;
20966;SDS011;10642;50.682;18.510;2022-07-29T12:10:05;9.57;;;3.97;;
20966;SDS011;10642;50.682;18.510;2022-07-29T12:12:37;5.50;;;3.27;;
20966;SDS011;10642;50.682;18.510;2022-07-29T12:15:17;6.03;;;3.70;;
20966;SDS011;10642;50.682;18.510;2022-07-29T12:17:48;5.67;;;4.10;;
20966;SDS011;10642;50.682;18.510;2022-07-29T12:20:36;7.60;;;3.90;;
20966;SDS011;10642;50.682;18.510;2022-07-29T12:23:06;8.37;;;3.90;;
20966;SDS011;10642;50.682;18.510;2022-07-29T12:25:34;6.40;;;3.97;;
20966;SDS011;10642;50.682;18.510;2022-07-29T12:28:08;7.83;;;4.07;;
20966;SDS011;10642;50.682;18.510;2022-07-29T12:30:46;8.57;;;3.90;;
20966;SDS011;10642;50.682;18.510;2022-07-29T12:35:45;6.00;;;3.33;;
20966;SDS011;10642;50.682;18.510;2022-07-29T12:38:29;5.10;;;3.87;;
20966;SDS011;10642;50.682;18.510;2022-07-29T12:40:56;5.17;;;3.73;;
20966;SDS011;10642;50.682;18.510;2022-07-29T12:43:23;10.67;;;3.60;;
20966;SDS011;10642;50.682;18.510;2022-07-29T12:45:51;7.90;;;4.20;;
20966;SDS011;10642;50.682;18.510;2022-07-29T12:48:33;9.67;;;4.70;;
20966;SDS011;10642;50.682;18.510;2022-07-29T12:51:00;8.37;;;4.47;;
20966;SDS011;10642;50.682;18.510;2022-07-29T12:53:28;7.30;;;4.03;;
20966;SDS011;10642;50.682;18.510;2022-07-29T12:55:56;6.50;;;3.57;;
20966;SDS011;10642;50.682;18.510;2022-07-29T12:58:35;17.90;;;4.53;;
20966;SDS011;10642;50.682;18.510;2022-07-29T13:01:07;9.03;;;3.30;;
20966;SDS011;10642;50.682;18.510;2022-07-29T13:09:07;11.07;;;3.40;;
20966;SDS011;10642;50.682;18.510;2022-07-29T13:11:35;8.80;;;3.77;;
20966;SDS011;10642;50.682;18.510;2022-07-29T13:14:02;9.50;;;3.50;;
20966;SDS011;10642;50.682;18.510;2022-07-29T13:16:32;4.97;;;2.80;;
20966;SDS011;10642;50.682;18.510;2022-07-29T13:19:06;7.87;;;3.30;;
20966;SDS011;10642;50.682;18.510;2022-07-29T13:21:34;4.23;;;3.17;;
20966;SDS011;10642;50.682;18.510;2022-07-29T13:24:01;5.57;;;3.60;;
20966;SDS011;10642;50.682;18.510;2022-07-29T13:26:29;9.40;;;3.57;;
20966;SDS011;10642;50.682;18.510;2022-07-29T13:28:55;8.30;;;3.63;;
20966;SDS011;10642;50.682;18.510;2022-07-29T13:31:23;7.57;;;3.27;;
20966;SDS011;10642;50.682;18.510;2022-07-29T13:33:50;8.43;;;3.90;;
20966;SDS011;10642;50.682;18.510;2022-07-29T13:36:18;11.47;;;3.70;;
20966;SDS011;10642;50.682;18.510;2022-07-29T13:38:45;6.13;;;3.77;;
20966;SDS011;10642;50.682;18.510;2022-07-29T13:41:12;6.30;;;4.03;;
20966;SDS011;10642;50.682;18.510;2022-07-29T13:43:39;12.13;;;4.80;;
20966;SDS011;10642;50.682;18.510;2022-07-29T13:46:06;9.50;;;4.70;;
20966;SDS011;10642;50.682;18.510;2022-07-29T13:48:33;12.20;;;5.13;;
20966;SDS011;10642;50.682;18.510;2022-07-29T13:51:00;9.27;;;4.70;;
20966;SDS011;10642;50.682;18.510;2022-07-29T13:53:27;7.93;;;4.63;;
20966;SDS011;10642;50.682;18.510;2022-07-29T13:55:55;8.17;;;4.23;;
20966;SDS011;10642;50.682;18.510;2022-07-29T13:58:22;10.57;;;4.13;;
20966;SDS011;10642;50.682;18.510;2022-07-29T14:00:49;7.60;;;4.20;;
20966;SDS011;10642;50.682;18.510;2022-07-29T14:03:16;6.53;;;4.13;;
20966;SDS011;10642;50.682;18.510;2022-07-29T14:05:43;8.27;;;3.93;;
20966;SDS011;10642;50.682;18.510;2022-07-29T14:08:11;6.00;;;4.00;;
20966;SDS011;10642;50.682;18.510;2022-07-29T14:10:38;8.37;;;4.07;;
20966;SDS011;10642;50.682;18.510;2022-07-29T14:13:05;8.00;;;4.23;;
20966;SDS011;10642;50.682;18.510;2022-07-29T14:15:50;9.90;;;4.70;;
20966;SDS011;10642;50.682;18.510;2022-07-29T14:18:17;5.43;;;4.37;;
20966;SDS011;10642;50.682;18.510;2022-07-29T14:20:44;7.17;;;4.13;;
20966;SDS011;10642;50.682;18.510;2022-07-29T14:23:11;8.00;;;4.47;;
20966;SDS011;10642;50.682;18.510;2022-07-29T14:25:41;6.30;;;4.30;;
20966;SDS011;10642;50.682;18.510;2022-07-29T14:28:09;8.80;;;4.60;;
20966;SDS011;10642;50.682;18.510;2022-07-29T14:30:39;7.13;;;4.23;;
20966;SDS011;10642;50.682;18.510;2022-07-29T14:33:06;19.17;;;6.77;;
20966;SDS011;10642;50.682;18.510;2022-07-29T14:35:33;17.27;;;6.60;;
20966;SDS011;10642;50.682;18.510;2022-07-29T14:38:00;19.37;;;9.43;;
20966;SDS011;10642;50.682;18.510;2022-07-29T14:40:27;29.20;;;13.10;;
20966;SDS011;10642;50.682;18.510;2022-07-29T14:42:54;16.30;;;5.77;;
20966;SDS011;10642;50.682;18.510;2022-07-29T14:45:21;14.10;;;8.73;;
20966;SDS011;10642;50.682;18.510;2022-07-29T14:47:49;20.03;;;8.17;;
20966;SDS011;10642;50.682;18.510;2022-07-29T14:50:23;11.67;;;6.57;;
20966;SDS011;10642;50.682;18.510;2022-07-29T14:52:57;17.27;;;6.67;;
20966;SDS011;10642;50.682;18.510;2022-07-29T14:55:25;11.77;;;5.40;;
20966;SDS011;10642;50.682;18.510;2022-07-29T14:57:52;7.63;;;5.00;;
20966;SDS011;10642;50.682;18.510;2022-07-29T15:00:31;8.70;;;4.70;;
20966;SDS011;10642;50.682;18.510;2022-07-29T15:03:00;5.37;;;4.50;;
20966;SDS011;10642;50.682;18.510;2022-07-29T15:05:29;8.33;;;4.23;;
20966;SDS011;10642;50.682;18.510;2022-07-29T15:07:56;7.97;;;4.03;;
20966;SDS011;10642;50.682;18.510;2022-07-29T15:10:24;9.60;;;4.53;;
20966;SDS011;10642;50.682;18.510;2022-07-29T15:12:53;8.00;;;4.87;;
20966;SDS011;10642;50.682;18.510;2022-07-29T15:15:20;5.90;;;3.97;;
20966;SDS011;10642;50.682;18.510;2022-07-29T15:17:47;5.97;;;4.00;;
20966;SDS011;10642;50.682;18.510;2022-07-29T15:20:14;7.37;;;4.40;;
20966;SDS011;10642;50.682;18.510;2022-07-29T15:22:41;8.73;;;4.97;;
20966;SDS011;10642;50.682;18.510;2022-07-29T15:25:09;8.70;;;4.80;;
20966;SDS011;10642;50.682;18.510;2022-07-29T15:27:36;7.17;;;4.57;;
20966;SDS011;10642;50.682;18.510;2022-07-29T15:30:03;9.23;;;5.40;;
20966;SDS011;10642;50.682;18.510;2022-07-29T15:32:31;8.27;;;4.77;;
20966;SDS011;10642;50.682;18.510;2022-07-29T15:34:58;10.70;;;4.60;;
20966;SDS011;10642;50.682;18.510;2022-07-29T15:37:25;8.03;;;5.00;;
20966;SDS011;10642;50.682;18.510;2022-07-29T15:39:52;8.87;;;5.13;;
20966;SDS011;10642;50.682;18.510;2022-07-29T15:42:25;6.63;;;5.20;;